Airfield :
LOGIN :

Register | Disclaimer

   EN    FR    IT 

 










Legend :    VFR   Marginal VFR   IFR   Intensive IFR   Very Intensive IFR
Visi :
Ceiling :
>= 8 km
>= 3000ft
5 to 8 km
1000 to 3000 ft
1500m to 5 km
500 to 1000 ft
800 to 1500m
200 to 500 ft
< 800m
< 200 ft
Symbols :   Thunderstorms  Fog  Heavy snow  Heavy precipitations  Wind > 20 kt
SIGMETs :     Misc.  Thunderstorms  Icing  Turbulence  Mountain Waves  Volcanic Ashes






- Airport Elevation : 309 ft
- IATA code : FNI


LFTW - Nîmes Garons

CURRENT METAR :
  • 261000Z AUTO 33003KT CAVOK 09/01 Q1030 NOSIG

EXPIRED METARs :
  • 260930Z AUTO 33004KT CAVOK 07/01 Q1030 NOSIG
  • 260900Z AUTO 32003KT CAVOK 05/01 Q1030 NOSIG
  • 260830Z AUTO 33004KT CAVOK 04/01 Q1030 NOSIG
  • 260800Z AUTO 31005KT CAVOK 02/00 Q1030 NOSIG
  • 260730Z AUTO 31005KT CAVOK M00/M01 Q1030 NOSIG

TAF TAF LFTW
Valid from the 26 at 09:00 until the 27 at 09:00 UTC


260800Z 2609/2709 31005KT CAVOK
TEMPO 2621/2623 02010KT
BECMG 2623/2701 02010KT



MET'MAP, your aeronautical weather chart ! - Copyright ORBIFLY December 2007 - Disclaimer

ORBIFLY MET'MAP TEAM :

Programming & Development : Alexandra Zaïnal
Original concept : Baudouin d'Aumeries
Technical & hardware support : Manuel Goepfert
Assistance : Marc-Olivier Méhu

Contact : metmap@orbifly.com




SOURCES & CREDITS :

   NOAA